Igloolik Airport
CYGT : now visible

Airfield :











YOU CAN JOIN US ON...

 
LOGIN :

Register | Disclaimer

   EN    FR    IT 

 









Legend :    VFR   Marginal VFR   IFR   Intensive IFR   Very Intensive IFR
Visi :
Ceiling :
>= 8 km
>= 3000ft
5 to 8 km
1000 to 3000 ft
1500m to 5 km
500 to 1000 ft
800 to 1500m
200 to 500 ft
< 800m
< 200 ft
Symbols :   Thunderstorms  Fog  Heavy snow  Heavy precipitations  Wind > 20 kt






- Airport Elevation : 174 ft
- IATA code : YGT


CYGT - Igloolik

CURRENT METAR :
  • 271737Z 04010KT 15SM FEW040 FEW097 M32/M35 A2983 RMK SC1AC2 SLP113

EXPIRED METARs :
  • 271700Z 06012KT 10SM -SN SCT040 SCT097 M30/M34 A2981 RMK SC4AC1 SLP108
  • 271600Z 07014KT 6SM -SN SCT040 BKN097 M29/M32 A2979 RMK SC5AC2 SLP099
  • 271500Z 06012KT 5SM -SN SCT040 OVC097 M28/M31 A2978 RMK SC5AC3 SLP095

TAF TAF CYGT
Valid from the 27 at 13:00 until the 27 at 22:00 UTC


271242Z 2713/2722 07005KT P6SM SCT040 OVC100
TEMPO 2713/2720 5SM -SN BKN040 OVC100
BECMG 2714/2716 35010KT
FM272000 34012KT P6SM FEW040 RMK NXT FCST BY 271900Z



MET'MAP, your aeronautical weather chart ! - Copyright ORBIFLY December 2007 - Disclaimer

ORBIFLY MET'MAP TEAM :

Programming & Development : Alexandra Zaïnal
Concept & original design : Baudouin d'Aumeries
Assistance for programming : Marc-Olivier Méhu
Technical & hardware support : Manuel Goepfert

Contact : metmap@orbifly.com




SOURCES & CREDITS :

   NOAA       Earth
Advisory